Wotan — V2CA5 — position and weather

sailwx.info

Track history (hours):
 
Tides and Currents Weather Stations Pressure Air Temp Water Temp Dewpoint Dewpoint Depression Visibility Wind Speed Wind Dir Waves Ship Positions

Wotan

Last reported at 2015-Feb-28 04:28 UTC. Time now 2015-Feb-28 07:00 UTC.
Position N 38°28' W 010°03'.

Length 100 m; draft 5.9 m.

Type: Cargo ship. MMSI: 304195000.

Date/timePositionNaut miles runAvg speedWind from/ knotsBaromVisibWave heightAir tempDewpointWater temp
2015-Feb-28 04:28N 38°28' W 010°03'9 9.6
2015-Feb-28 03:32N 38°37' W 010°05'9 9.0
2015-Feb-28 02:33N 38°46' W 010°06'11 9.1
2015-Feb-28 01:18N 38°57' W 010°06'9 8.9
2015-Feb-28 00:21N 39°06' W 010°07'  
2015-Feb-22 13:33N 50°35' E 000°18'7 6.7
2015-Feb-22 12:33N 50°37' E 000°28'6 6.1
2015-Feb-22 11:33N 50°40' E 000°37'7 6.8
2015-Feb-22 10:33N 50°44' E 000°46'9 8.7
2015-Feb-22 09:31N 50°49' E 000°57'1110.8
2015-Feb-22 08:31N 50°56' E 001°11'1111.4
2015-Feb-22 07:33N 51°03' E 001°24'1010.3
2015-Feb-22 06:33N 51°10' E 001°37'10 9.6
2015-Feb-22 05:33N 51°16' E 001°48'9 8.6
2015-Feb-22 04:33N 51°24' E 001°55'8 8.2
2015-Feb-22 03:34N 51°30' E 002°03'8 8.1
2015-Feb-22 02:33N 51°36' E 002°11'9 9.1
2015-Feb-22 01:31N 51°43' E 002°21'13610.2
2015-Feb-21 12:07N 53°29' E 004°42'610.3
2015-Feb-21 11:33N 53°32' E 004°51'10 9.7
2015-Feb-21 10:33N 53°35' E 005°07'9 8.8
2015-Feb-21 09:33N 53°38' E 005°21'9 8.5
2015-Feb-21 08:33N 53°41' E 005°34'8 8.5
2015-Feb-21 07:33N 53°44' E 005°47'5710.7
2015-Feb-21 02:15N 53°59' E 007°20'810.8
2015-Feb-21 01:33N 54°01' E 007°33'10 9.9
2015-Feb-21 00:33N 54°02' E 007°49'10 9.6
2015-Feb-20 23:33N 54°00' E 008°06'9 8.7
2015-Feb-20 22:33N 53°60' E 008°20'7 7.5
2015-Feb-20 21:33N 53°58' E 008°33'1010.2
2015-Feb-20 20:33N 53°51' E 008°45'1313.0
2015-Feb-20 19:33N 53°53' E 009°07'1111.4
2015-Feb-20 18:33N 53°47' E 009°24'1212.5
2015-Feb-20 17:34N 53°36' E 009°35'1010.2
2015-Feb-20 16:33N 53°33' E 009°51'4 4.3
2015-Feb-20 15:31N 53°30' E 009°58'0 0.0
2015-Feb-20 14:31N 53°30' E 009°58'0 0.0
2015-Feb-20 13:25N 53°30' E 009°58'0 0.0
2015-Feb-20 12:16N 53°30' E 009°58'0 0.0
2015-Feb-20 11:28N 53°30' E 009°58'0 0.0
2015-Feb-20 10:25N 53°30' E 009°58'0 0.0
2015-Feb-20 09:31N 53°30' E 009°58'0 0.0
2015-Feb-20 08:31N 53°30' E 009°58'0 0.0
2015-Feb-20 07:28N 53°30' E 009°58'0 0.0
2015-Feb-20 06:31N 53°30' E 009°58'0 0.0
2015-Feb-20 05:31N 53°30' E 009°58'0 0.0
2015-Feb-20 04:29N 53°30' E 009°58'2 2.2
2015-Feb-20 03:33N 53°32' E 009°56'8 7.9
2015-Feb-20 02:33N 53°34' E 009°43'10 9.5
2015-Feb-20 01:33N 53°40' E 009°31'0 0.4
2015-Feb-20 00:33N 53°40' E 009°31'1312.7
2015-Feb-19 23:33N 53°50' E 009°20'8 8.2
2015-Feb-19 22:33N 53°53' E 009°07'1212.4
2015-Feb-19 21:34N 53°51' E 008°46'1211.8
2015-Feb-19 20:34N 53°58' E 008°30'1212.2
2015-Feb-19 19:33N 53°60' E 008°10'8 8.0
2015-Feb-19 18:32N 53°58' E 007°56'6 6.4
2015-Feb-19 17:32N 53°56' E 007°45'7 6.8
2015-Feb-19 16:33N 53°55' E 007°34'8 7.3
2015-Feb-19 15:29N 53°54' E 007°21'7 7.0
2015-Feb-19 14:26N 53°52' E 007°09'39 8.0
2015-Feb-19 09:32N 53°41' E 006°05'7 7.3
2015-Feb-19 08:31N 53°39' E 005°53'8 7.7
2015-Feb-19 07:32N 53°36' E 005°41'1010.4
2015-Feb-19 06:32N 53°33' E 005°25'1111.7
2015-Feb-19 05:34N 53°30' E 005°06'1212.1
2015-Feb-19 04:33N 53°25' E 004°47'1212.2
2015-Feb-19 03:34N 53°15' E 004°36'1512.1
2015-Feb-19 02:21N 53°02' E 004°24'911.4
2015-Feb-19 01:33N 52°54' E 004°17'1410.5
2015-Feb-19 00:12N 52°43' E 004°03'38 9.2
2015-Feb-18 20:04N 52°11' E 003°27'9 9.8
2015-Feb-18 19:11N 52°03' E 003°25'14 8.1
2015-Feb-18 17:27N 51°49' E 003°19'9 9.3
2015-Feb-18 16:29N 51°40' E 003°19'1112.1
2015-Feb-18 15:34N 51°30' E 003°27'1110.7
2015-Feb-18 14:34N 51°25' E 003°42'7 6.9
2015-Feb-18 13:34N 51°20' E 003°49'4 4.5
2015-Feb-18 12:33N 51°15' E 003°50'9 8.6
2015-Feb-18 11:33N 51°07' E 003°45'2 2.0
2015-Feb-18 10:31N 51°05' E 003°44'0 0.0
2015-Feb-18 09:28N 51°05' E 003°44'0 0.0
2015-Feb-18 08:28N 51°05' E 003°44'0 0.0
2015-Feb-18 07:31N 51°05' E 003°44'0 0.0
2015-Feb-18 06:28N 51°05' E 003°44'0 0.0
2015-Feb-18 05:31N 51°05' E 003°44'  
Track history (hours):
 
Tides and Currents Weather Stations Pressure Air Temp Water Temp Dewpoint Dewpoint Depression Visibility Wind Speed Wind Dir Waves Ship Positions

Wotan

Last reported at 2015-Feb-28 04:28 UTC. Time now 2015-Feb-28 07:00 UTC.
Position N 38°28' W 010°03'.

Length 100 m; draft 5.9 m.

Type: Cargo ship. MMSI: 304195000.

Date/timePositionNaut miles runAvg speedWind from/ knotsBaromVisibWave heightAir tempDewpointWater temp
2015-Feb-28 04:28N 38°28' W 010°03'9 9.6
2015-Feb-28 03:32N 38°37' W 010°05'9 9.0
2015-Feb-28 02:33N 38°46' W 010°06'11 9.1
2015-Feb-28 01:18N 38°57' W 010°06'9 8.9
2015-Feb-28 00:21N 39°06' W 010°07'  
2015-Feb-22 13:33N 50°35' E 000°18'7 6.7
2015-Feb-22 12:33N 50°37' E 000°28'6 6.1
2015-Feb-22 11:33N 50°40' E 000°37'7 6.8
2015-Feb-22 10:33N 50°44' E 000°46'9 8.7
2015-Feb-22 09:31N 50°49' E 000°57'1110.8
2015-Feb-22 08:31N 50°56' E 001°11'1111.4
2015-Feb-22 07:33N 51°03' E 001°24'1010.3
2015-Feb-22 06:33N 51°10' E 001°37'10 9.6
2015-Feb-22 05:33N 51°16' E 001°48'9 8.6
2015-Feb-22 04:33N 51°24' E 001°55'8 8.2
2015-Feb-22 03:34N 51°30' E 002°03'8 8.1
2015-Feb-22 02:33N 51°36' E 002°11'9 9.1
2015-Feb-22 01:31N 51°43' E 002°21'13610.2
2015-Feb-21 12:07N 53°29' E 004°42'610.3
2015-Feb-21 11:33N 53°32' E 004°51'10 9.7
2015-Feb-21 10:33N 53°35' E 005°07'9 8.8
2015-Feb-21 09:33N 53°38' E 005°21'9 8.5
2015-Feb-21 08:33N 53°41' E 005°34'8 8.5
2015-Feb-21 07:33N 53°44' E 005°47'5710.7
2015-Feb-21 02:15N 53°59' E 007°20'810.8
2015-Feb-21 01:33N 54°01' E 007°33'10 9.9
2015-Feb-21 00:33N 54°02' E 007°49'10 9.6
2015-Feb-20 23:33N 54°00' E 008°06'9 8.7
2015-Feb-20 22:33N 53°60' E 008°20'7 7.5
2015-Feb-20 21:33N 53°58' E 008°33'1010.2
2015-Feb-20 20:33N 53°51' E 008°45'1313.0
2015-Feb-20 19:33N 53°53' E 009°07'1111.4
2015-Feb-20 18:33N 53°47' E 009°24'1212.5
2015-Feb-20 17:34N 53°36' E 009°35'1010.2
2015-Feb-20 16:33N 53°33' E 009°51'4 4.3
2015-Feb-20 15:31N 53°30' E 009°58'0 0.0
2015-Feb-20 14:31N 53°30' E 009°58'0 0.0
2015-Feb-20 13:25N 53°30' E 009°58'0 0.0
2015-Feb-20 12:16N 53°30' E 009°58'0 0.0
2015-Feb-20 11:28N 53°30' E 009°58'0 0.0
2015-Feb-20 10:25N 53°30' E 009°58'0 0.0
2015-Feb-20 09:31N 53°30' E 009°58'0 0.0
2015-Feb-20 08:31N 53°30' E 009°58'0 0.0
2015-Feb-20 07:28N 53°30' E 009°58'0 0.0
2015-Feb-20 06:31N 53°30' E 009°58'0 0.0
2015-Feb-20 05:31N 53°30' E 009°58'0 0.0
2015-Feb-20 04:29N 53°30' E 009°58'2 2.2
2015-Feb-20 03:33N 53°32' E 009°56'8 7.9
2015-Feb-20 02:33N 53°34' E 009°43'10 9.5
2015-Feb-20 01:33N 53°40' E 009°31'0 0.4
2015-Feb-20 00:33N 53°40' E 009°31'1312.7
2015-Feb-19 23:33N 53°50' E 009°20'8 8.2
2015-Feb-19 22:33N 53°53' E 009°07'1212.4
2015-Feb-19 21:34N 53°51' E 008°46'1211.8
2015-Feb-19 20:34N 53°58' E 008°30'1212.2
2015-Feb-19 19:33N 53°60' E 008°10'8 8.0
2015-Feb-19 18:32N 53°58' E 007°56'6 6.4
2015-Feb-19 17:32N 53°56' E 007°45'7 6.8
2015-Feb-19 16:33N 53°55' E 007°34'8 7.3
2015-Feb-19 15:29N 53°54' E 007°21'7 7.0
2015-Feb-19 14:26N 53°52' E 007°09'39 8.0
2015-Feb-19 09:32N 53°41' E 006°05'7 7.3
2015-Feb-19 08:31N 53°39' E 005°53'8 7.7
2015-Feb-19 07:32N 53°36' E 005°41'1010.4
2015-Feb-19 06:32N 53°33' E 005°25'1111.7
2015-Feb-19 05:34N 53°30' E 005°06'1212.1
2015-Feb-19 04:33N 53°25' E 004°47'1212.2
2015-Feb-19 03:34N 53°15' E 004°36'1512.1
2015-Feb-19 02:21N 53°02' E 004°24'911.4
2015-Feb-19 01:33N 52°54' E 004°17'1410.5
2015-Feb-19 00:12N 52°43' E 004°03'38 9.2
2015-Feb-18 20:04N 52°11' E 003°27'9 9.8
2015-Feb-18 19:11N 52°03' E 003°25'14 8.1
2015-Feb-18 17:27N 51°49' E 003°19'9 9.3
2015-Feb-18 16:29N 51°40' E 003°19'1112.1
2015-Feb-18 15:34N 51°30' E 003°27'1110.7
2015-Feb-18 14:34N 51°25' E 003°42'7 6.9
2015-Feb-18 13:34N 51°20' E 003°49'4 4.5
2015-Feb-18 12:33N 51°15' E 003°50'9 8.6
2015-Feb-18 11:33N 51°07' E 003°45'2 2.0
2015-Feb-18 10:31N 51°05' E 003°44'0 0.0
2015-Feb-18 09:28N 51°05' E 003°44'0 0.0
2015-Feb-18 08:28N 51°05' E 003°44'0 0.0
2015-Feb-18 07:31N 51°05' E 003°44'0 0.0
2015-Feb-18 06:28N 51°05' E 003°44'0 0.0
2015-Feb-18 05:31N 51°05' E 003°44'  

Dump ship's entire track history